Time;durP1;ratioP1;P1;durP2;ratioP2;P2;SDS_P1;SDS_P2;PMS_P1;PMS_P2;Temp;Humidity;BMP_temperature;BMP_pressure;BME280_temperature;BME280_humidity;BME280_pressure;Samples;Min_cycle;Max_cycle;Signal;HPM_P1;HPM_P2
2022/04/13 00:00:28;;;;;;;;;;;;;;;26.06;37.40;100990.03;5059210;28;20033;-52
2022/04/13 00:02:54;;;;;;;15.67;4.00;;;;;;;26.05;37.26;100988.41;5062798;28;19924;-51
2022/04/13 00:05:20;;;;;;;12.73;3.87;;;;;;;25.99;37.61;100988.78;5072938;28;20041;-51
2022/04/13 00:07:45;;;;;;;10.77;4.03;;;;;;;26.03;37.66;100984.31;5064443;28;20271;-55
2022/04/13 00:10:11;;;;;;;10.95;3.63;;;;;;;25.99;37.33;100988.78;5060253;28;20052;-51
2022/04/13 00:12:37;;;;;;;11.00;3.88;;;;;;;26.10;37.51;100992.16;5068517;28;20029;-57
2022/04/13 00:15:05;;;;;;;13.32;4.07;;;;;;;26.19;37.01;100999.44;5062033;28;20033;-52
2022/04/13 00:17:31;;;;;;;9.93;3.80;;;;;;;26.41;37.07;100995.28;5070213;28;20132;-50
2022/04/13 00:19:57;;;;;;;13.85;3.75;;;;;;;26.09;37.16;101005.06;5061973;28;20301;-54
2022/04/13 00:22:22;;;;;;;;;;;;;;;26.08;37.38;101000.72;5073166;28;20052;-54
2022/04/13 00:24:48;;;;;;;16.30;5.07;;;;;;;25.88;37.66;101001.81;5065925;28;19919;-52
2022/04/13 00:27:14;;;;;;;20.17;6.20;;;;;;;25.82;37.86;100992.81;5062303;28;20028;-53
2022/04/13 00:29:39;;;;;;;16.10;5.40;;;;;;;25.91;37.43;101002.03;5066683;28;20033;-57
2022/04/13 00:32:06;;;;;;;15.77;5.82;;;;;;;25.82;37.86;101000.25;5070343;28;20033;-53
2022/04/13 00:34:32;;;;;;;12.60;4.03;;;;;;;25.83;37.65;101001.88;5059435;28;20037;-51
2022/04/13 00:36:58;;;;;;;10.73;4.03;;;;;;;25.88;37.51;101004.53;5062671;28;20286;-54
2022/04/13 00:39:25;;;;;;;10.27;3.70;;;;;;;25.76;37.70;101002.22;5071877;28;20067;-54
2022/04/13 00:41:57;;;;;;;;;;;;;;;25.75;37.71;101011.56;5061250;28;20045;-54
2022/04/13 00:44:25;;;;;;;12.33;4.03;;;;;;;25.60;38.24;101010.66;5065372;28;19939;-49
2022/04/13 00:46:50;;;;;;;11.50;4.20;;;;;;;25.42;38.69;101014.94;5066257;28;20277;-53
2022/04/13 00:49:17;;;;;;;12.65;3.75;;;;;;;25.51;38.94;101006.94;5067324;28;20278;-53
2022/04/13 00:51:42;;;;;;;11.48;4.88;;;;;;;25.40;38.96;101016.38;5061917;28;20036;-52
2022/04/13 00:54:10;;;;;;;10.63;3.90;;;;;;;24.77;39.82;101019.72;5064783;28;20448;-49
2022/04/13 00:56:40;;;;;;;13.93;4.60;;;;;;;25.07;39.42;101022.47;5066141;28;20104;-52
2022/04/13 00:59:09;;;;;;;9.83;3.93;;;;;;;25.08;39.79;101023.25;5065982;28;20282;-51
2022/04/13 01:01:42;;;;;;;13.70;3.97;;;;;;;24.86;39.71;101021.84;5072593;28;20329;-51
2022/04/13 01:04:11;;;;;;;12.90;4.43;;;;;;;24.68;40.64;101026.91;5056331;28;20275;-50
2022/04/13 01:06:37;;;;;;;17.67;4.50;;;;;;;25.10;39.59;101034.72;5070485;28;20286;-54
2022/04/13 01:09:03;;;;;;;17.43;4.57;;;;;;;25.16;39.89;101034.41;5074943;28;20262;-52
2022/04/13 01:11:29;;;;;;;15.95;4.65;;;;;;;25.18;39.83;101021.25;5051706;28;20319;-51
2022/04/13 01:13:55;;;;;;;16.47;5.27;;;;;;;25.04;40.49;101040.25;5064400;28;20060;-53
2022/04/13 01:16:22;;;;;;;21.27;5.97;;;;;;;24.86;40.82;101041.81;5072453;28;20041;-52
2022/04/13 01:18:48;;;;;;;20.73;5.57;;;;;;;25.03;40.84;101041.38;5068468;28;20290;-53
2022/04/13 01:21:15;;;;;;;13.87;5.50;;;;;;;24.88;40.98;101052.44;5062371;28;20275;-55
2022/04/13 01:23:41;;;;;;;11.00;5.43;;;;;;;24.99;41.05;101054.00;5069524;28;20112;-51
2022/04/13 01:26:10;;;;;;;16.88;5.28;;;;;;;24.94;41.12;101056.78;5070351;28;20267;-56
2022/04/13 01:28:37;;;;;;;17.53;5.93;;;;;;;24.86;41.57;101060.94;5062295;28;20048;-54
2022/04/13 01:31:03;;;;;;;13.07;5.05;;;;;;;24.94;41.48;101070.47;5062156;28;20273;-54
2022/04/13 01:33:29;;;;;;;16.15;6.22;;;;;;;24.92;41.86;101069.94;5068887;28;20055;-54
2022/04/13 01:36:01;;;;;;;14.82;5.80;;;;;;;24.87;41.76;101072.69;5068884;28;20037;-56
2022/04/13 01:38:28;;;;;;;16.10;6.10;;;;;;;24.85;42.08;101074.91;5075466;28;20029;-55
2022/04/13 01:40:55;;;;;;;14.00;5.90;;;;;;;24.84;42.03;101082.31;5064592;28;20274;-54
2022/04/13 01:43:21;;;;;;;20.40;6.20;;;;;;;24.92;42.17;101083.63;5060787;28;20341;-50
2022/04/13 01:45:47;;;;;;;17.17;7.60;;;;;;;24.94;42.42;101086.03;5071234;28;20283;-51
2022/04/13 01:48:12;;;;;;;16.77;6.67;;;;;;;24.75;42.76;101090.31;5066656;28;20278;-56
2022/04/13 01:50:38;;;;;;;17.65;5.90;;;;;;;24.91;42.45;101091.00;5070027;28;20033;-48
2022/04/13 01:53:03;;;;;;;13.70;5.57;;;;;;;24.95;42.58;101095.88;5070049;28;20053;-52
2022/04/13 01:55:29;;;;;;;14.73;6.85;;;;;;;24.81;43.09;101099.28;5072291;28;20055;-50
2022/04/13 01:57:54;;;;;;;19.52;7.75;;;;;;;24.96;42.77;101092.88;5074550;28;20071;-54
2022/04/13 02:00:19;;;;;;;24.27;7.83;;;;;;;24.56;43.83;101095.59;5062381;28;20045;-53
2022/04/13 02:02:46;;;;;;;18.25;6.85;;;;;;;25.05;42.96;101093.88;5064920;28;20033;-53
2022/04/13 02:05:12;;;;;;;20.38;7.90;;;;;;;24.15;45.57;101093.13;5075402;28;20044;-53
2022/04/13 02:07:37;;;;;;;22.73;8.20;;;;;;;24.27;45.38;101090.06;5067377;28;20025;-52
2022/04/13 02:10:03;;;;;;;22.85;8.30;;;;;;;24.62;45.03;101090.91;5071927;28;20041;-52
2022/04/13 02:12:29;;;;;;;26.27;8.88;;;;;;;24.48;45.60;101101.66;5047784;28;20038;-51
2022/04/13 02:14:54;;;;;;;15.87;7.80;;;;;;;24.38;45.98;101094.34;5069907;28;20060;-51
2022/04/13 02:17:21;;;;;;;20.90;8.27;;;;;;;24.52;45.92;101105.47;5075015;28;20285;-50
2022/04/13 02:19:47;;;;;;;18.83;8.17;;;;;;;24.77;45.18;101099.03;5068175;28;20064;-55
2022/04/13 02:22:13;;;;;;;17.05;7.82;;;;;;;24.86;44.75;101106.63;5066075;28;20284;-51
2022/04/13 02:24:39;;;;;;;17.42;7.65;;;;;;;24.56;45.83;101103.78;5062181;28;20037;-53
2022/04/13 02:27:07;;;;;;;19.25;7.72;;;;;;;24.62;45.86;101104.56;5063824;28;20042;-49
2022/04/13 02:29:34;;;;;;;20.10;7.70;;;;;;;24.47;46.48;101097.31;5068962;28;20060;-51
2022/04/13 02:32:00;;;;;;;21.87;8.33;;;;;;;24.19;47.37;101111.41;5058475;28;20293;-54
2022/04/13 02:34:26;;;;;;;17.67;9.23;;;;;;;24.45;47.18;101114.00;5058450;28;20365;-53
2022/04/13 02:36:51;;;;;;;22.07;8.83;;;;;;;24.58;47.14;101114.47;5062758;28;20275;-50
2022/04/13 02:39:17;;;;;;;19.20;8.48;;;;;;;24.51;47.22;101111.22;5066412;28;20096;-48
2022/04/13 02:41:43;;;;;;;21.52;7.82;;;;;;;24.31;48.08;101110.25;5068474;28;20083;-52
2022/04/13 02:44:08;;;;;;;18.70;9.17;;;;;;;24.00;49.32;101113.91;5061935;28;20064;-51
2022/04/13 02:46:33;;;;;;;24.40;9.07;;;;;;;24.37;48.12;101111.84;5054723;28;20061;-53
2022/04/13 02:48:59;;;;;;;19.30;8.77;;;;;;;24.47;47.98;101116.44;5044238;28;20038;-49
2022/04/13 02:51:24;;;;;;;21.87;8.57;;;;;;;24.08;49.11;101118.00;5039508;28;20033;-53
2022/04/13 02:53:50;;;;;;;23.10;8.65;;;;;;;23.97;49.73;101124.56;5044790;28;20121;-54
2022/04/13 02:56:17;;;;;;;19.17;7.63;;;;;;;23.90;50.24;101124.91;5051203;28;20033;-53
2022/04/13 02:58:42;;;;;;;22.42;8.85;;;;;;;23.91;50.59;101126.53;5044621;28;20275;-51
2022/04/13 03:01:08;;;;;;;17.92;7.75;;;;;;;23.55;52.33;101129.34;5054179;28;20042;-51
2022/04/13 03:03:35;;;;;;;17.02;7.22;;;;;;;23.39;53.54;101129.38;5047903;28;20056;-52
2022/04/13 03:06:00;;;;;;;15.38;7.38;;;;;;;23.05;55.88;101128.00;5054316;28;20037;-51
2022/04/13 03:08:26;;;;;;;18.65;7.88;;;;;;;23.36;54.03;101127.19;5047798;28;20071;-52
2022/04/13 03:10:52;;;;;;;20.55;9.23;;;;;;;23.28;54.72;101134.03;5045716;28;20048;-50
2022/04/13 03:13:17;;;;;;;24.13;9.50;;;;;;;23.39;55.16;101128.56;5052950;28;20136;-49
2022/04/13 03:15:43;;;;;;;19.70;8.93;;;;;;;22.90;56.95;101125.28;5048872;28;20045;-54
2022/04/13 03:18:08;;;;;;;27.87;9.53;;;;;;;23.51;55.09;101123.63;5047612;28;20129;-50
2022/04/13 03:20:34;;;;;;;16.47;10.43;;;;;;;23.50;54.76;101130.16;5044525;28;20045;-52
2022/04/13 03:23:00;;;;;;;;;;;;;;;23.36;55.21;101129.13;5047978;28;20081;-53
2022/04/13 03:25:26;;;;;;;19.00;8.67;;;;;;;23.72;53.95;101126.31;5054079;28;19913;-50
2022/04/13 03:27:51;;;;;;;21.85;9.30;;;;;;;23.60;53.82;101138.34;5047356;28;20029;-52
2022/04/13 03:30:18;;;;;;;23.05;10.85;;;;;;;23.25;55.98;101144.66;5053331;28;20097;-54
2022/04/13 03:32:43;;;;;;;;;;;;;;;23.20;56.62;101140.00;5048876;28;20120;-52
2022/04/13 03:35:11;;;;;;;17.30;10.90;;;;;;;23.05;57.48;101136.19;5052921;28;19913;-51
2022/04/13 03:37:37;;;;;;;23.33;10.90;;;;;;;23.00;58.30;101138.91;5047296;28;20065;-51
2022/04/13 03:40:03;;;;;;;26.40;10.90;;;;;;;23.08;58.22;101134.03;5041867;28;20275;-51
2022/04/13 03:42:36;;;;;;;23.05;10.40;;;;;;;23.09;58.43;101144.66;5053262;28;20274;-49
2022/04/13 03:45:11;;;;;;;26.53;10.27;;;;;;;22.91;59.04;101143.28;5066576;28;20040;-55
2022/04/13 03:47:38;;;;;;;25.83;11.80;;;;;;;23.10;58.37;101156.41;5072861;28;20269;-53
2022/04/13 03:50:04;;;;;;;20.80;10.47;;;;;;;22.84;59.94;101159.09;5059675;28;20294;-51
2022/04/13 03:52:34;;;;;;;;;;;;;;;22.26;65.84;101155.38;5070139;28;20266;-49
2022/04/13 03:55:01;;;;;;;21.70;9.67;;;;;;;22.47;65.03;101159.00;5054483;28;19947;-54
2022/04/13 03:57:27;;;;;;;22.00;10.73;;;;;;;22.27;66.37;101156.19;5058065;28;20266;-51
2022/04/13 03:59:53;;;;;;;18.50;10.35;;;;;;;22.22;67.44;101169.78;5060278;28;20301;-51
2022/04/13 04:02:19;;;;;;;19.23;10.25;;;;;;;22.40;66.34;101166.59;5067107;28;20046;-53
2022/04/13 04:04:45;;;;;;;19.90;11.20;;;;;;;22.26;67.78;101160.00;5060662;28;20056;-54
2022/04/13 04:07:10;;;;;;;16.77;10.07;;;;;;;22.41;66.53;101162.78;5059993;28;20044;-50
2022/04/13 04:09:35;;;;;;;24.03;11.27;;;;;;;22.45;65.81;101155.72;5066809;28;20025;-54
2022/04/13 04:12:01;;;;;;;25.33;11.27;;;;;;;22.41;66.43;101162.78;5068589;28;20056;-52
2022/04/13 04:14:26;;;;;;;25.60;12.15;;;;;;;22.40;66.08;101169.31;5063851;28;20093;-55
2022/04/13 04:16:52;;;;;;;26.05;11.98;;;;;;;22.06;69.14;101180.59;5061842;28;20037;-55
2022/04/13 04:19:18;;;;;;;36.03;12.43;;;;;;;22.05;69.96;101170.81;5062601;28;20046;-51
2022/04/13 04:21:43;;;;;;;24.73;12.07;;;;;;;22.11;70.25;101175.19;5063651;28;20037;-53
2022/04/13 04:24:09;;;;;;;27.17;13.33;;;;;;;22.31;68.16;101173.63;5059712;28;20100;-51
2022/04/13 04:26:34;;;;;;;23.92;12.68;;;;;;;22.24;69.25;101178.53;5066570;28;20047;-51
2022/04/13 04:29:00;;;;;;;27.33;12.83;;;;;;;22.17;69.09;101179.59;5071219;28;20029;-53
2022/04/13 04:32:10;;;;;;;28.73;12.93;;;;;;;22.35;67.41;101178.28;5070730;28;20124;-53
2022/04/13 04:34:11;;;;;;;26.13;14.13;;;;;;;22.26;68.55;101184.50;5047347;28;20290;-53
2022/04/13 04:36:36;;;;;;;33.20;13.25;;;;;;;21.99;71.11;101182.75;5059667;28;20333;-50
2022/04/13 04:39:02;;;;;;;30.20;14.33;;;;;;;22.41;67.78;101178.31;5065660;28;20044;-51
2022/04/13 04:41:27;;;;;;;28.83;13.70;;;;;;;22.62;66.29;101184.69;5060335;28;20044;-54
2022/04/13 04:43:53;;;;;;;21.03;12.70;;;;;;;22.68;65.35;101194.50;5064525;28;20056;-55
2022/04/13 04:46:18;;;;;;;23.83;13.03;;;;;;;22.42;66.93;101202.56;5061458;28;20155;-50
2022/04/13 04:48:45;;;;;;;30.57;14.43;;;;;;;22.62;66.04;101198.31;5074548;28;20025;-50
2022/04/13 04:51:11;;;;;;;27.10;12.70;;;;;;;21.83;71.48;101203.63;5064234;28;20065;-54
2022/04/13 04:53:38;;;;;;;28.67;13.90;;;;;;;22.61;67.20;101207.56;5060391;28;20274;-51
2022/04/13 04:56:04;;;;;;;37.90;14.57;;;;;;;22.61;66.27;101204.84;5057540;28;20044;-50
2022/04/13 04:58:30;;;;;;;29.45;14.10;;;;;;;22.78;65.23;101205.41;5068048;28;20033;-53
2022/04/13 05:00:55;;;;;;;23.73;13.87;;;;;;;23.28;61.28;101218.59;5071557;28;20056;-51
2022/04/13 05:03:20;;;;;;;38.53;15.40;;;;;;;23.01;62.92;101221.56;5069643;28;20277;-51
2022/04/13 05:05:46;;;;;;;31.47;14.23;;;;;;;23.22;62.04;101230.59;5068904;28;20278;-52
2022/04/13 05:08:13;;;;;;;28.57;15.07;;;;;;;23.05;61.97;101230.84;5066355;28;20285;-52
2022/04/13 05:10:39;;;;;;;30.87;14.50;;;;;;;23.34;60.61;101233.06;5073392;28;20049;-50
2022/04/13 05:13:05;;;;;;;23.25;13.00;;;;;;;23.70;58.05;101235.81;5069883;28;20282;-52
2022/04/13 05:15:31;;;;;;;30.47;14.23;;;;;;;22.87;63.68;101240.34;5071834;28;20048;-51
2022/04/13 05:17:56;;;;;;;32.93;16.57;;;;;;;23.13;62.65;101254.03;5069772;28;20286;-50
2022/04/13 05:20:22;;;;;;;35.57;16.07;;;;;;;23.08;62.89;101257.56;5065081;28;20075;-54
2022/04/13 05:22:47;;;;;;;30.92;15.48;;;;;;;22.74;64.75;101260.78;5069709;28;20041;-52
2022/04/13 05:25:15;;;;;;;27.15;15.38;;;;;;;22.78;64.81;101262.66;5073078;28;20056;-52
2022/04/13 05:27:42;;;;;;;29.90;15.00;;;;;;;22.55;66.63;101271.31;5076509;28;20098;-53
2022/04/13 05:30:09;;;;;;;28.93;15.03;;;;;;;22.83;65.08;101270.06;5073620;28;20274;-52
2022/04/13 05:32:57;;;;;;;;;;;;;;;23.54;60.87;101266.91;5061235;28;20266;-54
2022/04/13 05:35:26;;;;;;;;;;;;;;;23.44;60.67;101270.47;5073187;28;19956;-51
2022/04/13 05:37:52;;;;;;;32.07;15.47;;;;;;;23.16;62.08;101267.94;5068923;28;19924;-53
2022/04/13 05:40:18;;;;;;;27.40;15.60;;;;;;;23.34;61.66;101274.84;5066558;28;20274;-51
2022/04/13 05:42:44;;;;;;;35.57;16.00;;;;;;;23.33;60.88;101288.75;5066222;28;20040;-53
2022/04/13 05:45:11;;;;;;;28.92;14.88;;;;;;;23.48;61.02;101282.47;5074071;28;20358;-57
2022/04/13 05:47:38;;;;;;;31.02;15.43;;;;;;;23.39;60.93;101286.84;5054029;28;20029;-53
2022/04/13 05:50:05;;;;;;;29.47;15.80;;;;;;;23.67;59.78;101287.41;5057181;28;20065;-57
2022/04/13 05:52:31;;;;;;;28.83;15.47;;;;;;;23.86;58.67;101304.03;5062871;28;20294;-54
2022/04/13 05:54:57;;;;;;;29.30;14.90;;;;;;;23.75;60.47;101292.28;5068703;28;20281;-52
2022/04/13 05:57:23;;;;;;;31.90;14.48;;;;;;;23.49;61.63;101300.47;5061440;28;20045;-55
2022/04/13 05:59:48;;;;;;;26.30;15.93;;;;;;;23.73;60.40;101302.66;5069060;28;20040;-54
2022/04/13 06:02:14;;;;;;;26.92;14.90;;;;;;;23.16;63.90;101302.59;5063546;28;20036;-54
2022/04/13 06:04:40;;;;;;;26.92;14.20;;;;;;;23.42;62.75;101316.31;5063084;28;20148;-52
2022/04/13 06:07:05;;;;;;;34.37;15.83;;;;;;;23.68;61.84;101316.34;5060994;28;20148;-52
2022/04/13 06:09:31;;;;;;;23.42;14.02;;;;;;;23.47;61.96;101316.31;5057945;28;20057;-50
2022/04/13 06:11:56;;;;;;;33.55;15.43;;;;;;;23.06;65.48;101314.31;5059549;28;20041;-52
2022/04/13 06:14:22;;;;;;;28.50;15.43;;;;;;;23.44;63.37;101325.88;5059177;28;20087;-53
2022/04/13 06:16:47;;;;;;;25.00;14.65;;;;;;;23.33;64.24;101330.50;5062191;28;20033;-52
2022/04/13 06:19:13;;;;;;;31.80;15.53;;;;;;;23.69;62.10;101329.72;5059311;28;20044;-52
2022/04/13 06:21:38;;;;;;;36.67;14.90;;;;;;;23.80;61.89;101337.91;5058055;28;20048;-54
2022/04/13 06:24:04;;;;;;;37.45;15.52;;;;;;;23.81;62.49;101337.63;5059642;28;20096;-50
2022/04/13 06:26:30;;;;;;;34.22;16.83;;;;;;;24.05;61.47;101340.66;5059439;28;20933;-49
2022/04/13 06:28:56;;;;;;;38.90;16.83;;;;;;;24.16;60.61;101344.19;5059087;28;20063;-54
2022/04/13 06:31:21;;;;;;;27.87;15.17;;;;;;;23.95;62.00;101350.72;5057596;28;20037;-52
2022/04/13 06:33:48;;;;;;;30.50;15.60;;;;;;;24.25;60.48;101343.66;5060089;28;20033;-52
2022/04/13 06:36:15;;;;;;;31.73;15.67;;;;;;;24.28;60.23;101348.56;5057217;28;20038;-51
2022/04/13 06:38:41;;;;;;;29.38;15.63;;;;;;;23.84;63.73;101350.75;5059658;28;20300;-54
2022/04/13 06:41:08;;;;;;;32.60;16.25;;;;;;;24.16;61.58;101346.13;5059765;28;20045;-56
2022/04/13 06:43:33;;;;;;;40.67;16.33;;;;;;;24.29;59.70;101340.06;5057634;28;20036;-52
2022/04/13 06:45:59;;;;;;;28.52;16.33;;;;;;;24.32;60.80;101342.25;5056174;28;20482;-51
2022/04/13 06:48:24;;;;;;;34.75;16.33;;;;;;;24.39;61.25;101354.81;5060207;28;20108;-49
2022/04/13 06:50:49;;;;;;;33.43;15.87;;;;;;;24.78;58.63;101359.63;5059097;28;20040;-50
2022/04/13 06:53:17;;;;;;;31.10;16.00;;;;;;;24.94;57.68;101362.31;5041095;28;20037;-52
2022/04/13 06:55:43;;;;;;;36.77;17.63;;;;;;;24.29;60.07;101367.41;5067697;28;20064;-55
2022/04/13 06:58:09;;;;;;;;;;;;;;;24.09;61.95;101368.25;5056942;28;20267;-54
2022/04/13 07:00:35;;;;;;;31.83;16.03;;;;;;;24.69;59.58;101361.28;5068566;28;19920;-56
2022/04/13 07:03:00;;;;;;;28.50;16.20;;;;;;;23.72;63.10;101370.13;5068002;28;20097;-53
2022/04/13 07:05:26;;;;;;;33.23;17.70;;;;;;;23.77;66.23;101361.13;5060106;28;20037;-51
2022/04/13 07:07:52;;;;;;;;;;;;;;;24.99;59.30;101370.50;5068139;28;20097;-53
2022/04/13 07:10:17;;;;;;;33.40;16.70;;;;;;;24.77;60.29;101371.69;5069090;28;19921;-51
2022/04/13 07:12:43;;;;;;;29.83;16.05;;;;;;;25.02;59.05;101378.16;5061892;28;20044;-52
2022/04/13 07:15:09;;;;;;;29.08;14.88;;;;;;;24.16;62.57;101393.38;5056821;28;20033;-53
2022/04/13 07:17:35;;;;;;;33.08;14.75;;;;;;;24.93;60.76;101386.13;5059280;28;20033;-51
2022/04/13 07:20:01;;;;;;;30.53;16.70;;;;;;;24.90;59.99;101392.16;5058909;28;20064;-53
2022/04/13 07:22:26;;;;;;;32.55;16.38;;;;;;;24.55;60.42;101405.63;5055594;28;20041;-54
2022/04/13 07:24:52;;;;;;;28.43;15.17;;;;;;;24.48;63.69;101408.66;5058234;28;20044;-51
2022/04/13 07:27:17;;;;;;;24.50;14.02;;;;;;;24.09;66.51;101400.19;5043220;28;20068;-54
2022/04/13 07:29:43;;;;;;;26.87;13.50;;;;;;;24.74;63.04;101402.28;5071574;28;20044;-53
2022/04/13 07:32:08;;;;;;;24.13;13.00;;;;;;;24.51;63.50;101414.66;5054426;28;20282;-51
2022/04/13 07:34:34;;;;;;;26.97;13.57;;;;;;;24.39;64.74;101410.28;5066627;28;20048;-53
2022/04/13 07:36:59;;;;;;;25.08;13.48;;;;;;;24.09;66.41;101409.22;5055887;28;20041;-52
2022/04/13 07:39:25;;;;;;;24.92;11.98;;;;;;;25.50;58.86;101399.56;5057529;28;20041;-52
2022/04/13 07:41:50;;;;;;;22.45;11.13;;;;;;;23.85;68.45;101412.47;5058866;28;20037;-53
2022/04/13 07:44:16;;;;;;;21.40;11.10;;;;;;;24.17;66.62;101419.59;5054769;28;20037;-53
2022/04/13 07:46:41;;;;;;;19.02;8.90;;;;;;;24.17;64.31;101414.13;5058298;28;20028;-55
2022/04/13 07:49:08;;;;;;;17.47;7.80;;;;;;;23.64;65.57;101427.97;5055824;28;20037;-56
2022/04/13 07:51:34;;;;;;;18.60;8.20;;;;;;;24.33;61.88;101425.06;5058477;28;20044;-50
2022/04/13 07:54:01;;;;;;;15.18;6.82;;;;;;;24.23;59.41;101436.00;5059122;28;20270;-54
2022/04/13 07:56:28;;;;;;;18.40;8.50;;;;;;;24.27;59.90;101431.63;5068306;28;20034;-54
2022/04/13 07:58:53;;;;;;;13.35;6.90;;;;;;;25.25;56.11;101439.63;5053225;28;20336;-53
2022/04/13 08:01:19;;;;;;;18.90;6.67;;;;;;;25.39;54.80;101437.09;5042937;28;20041;-54
2022/04/13 08:03:44;;;;;;;16.58;6.47;;;;;;;25.19;54.32;101438.03;5067408;28;20044;-54
2022/04/13 08:06:13;;;;;;;11.70;6.65;;;;;;;25.62;52.56;101430.16;5055092;28;20171;-54
2022/04/13 08:08:39;;;;;;;14.13;6.57;;;;;;;25.33;53.10;101447.25;5059654;28;20035;-54
2022/04/13 08:11:05;;;;;;;15.02;6.82;;;;;;;25.59;52.53;101436.19;5060139;28;20285;-52
2022/04/13 08:13:31;;;;;;;;;;;;;;;25.24;53.64;101440.72;5060399;28;20029;-54
2022/04/13 08:15:57;;;;;;;15.17;7.17;;;;;;;26.11;51.27;101451.44;5049398;28;19913;-55
2022/04/13 08:18:22;;;;;;;16.45;7.32;;;;;;;26.23;50.20;101451.94;5067374;28;20334;-52
2022/04/13 08:20:49;;;;;;;20.40;7.38;;;;;;;25.28;51.94;101451.94;5061696;28;20033;-55
2022/04/13 08:23:16;;;;;;;19.07;7.07;;;;;;;26.10;50.15;101456.13;5054439;28;20056;-50
2022/04/13 08:25:41;;;;;;;15.30;7.35;;;;;;;25.62;51.93;101451.25;5057238;28;20028;-54
2022/04/13 08:28:06;;;;;;;20.00;8.73;;;;;;;25.73;51.85;101455.56;5068601;28;20054;-53
2022/04/13 08:30:32;;;;;;;20.98;7.43;;;;;;;25.52;51.48;101468.53;5063983;28;20040;-56
2022/04/13 08:32:58;;;;;;;15.18;7.60;;;;;;;24.60;54.94;101467.69;5062301;28;20037;-56
2022/04/13 08:35:23;;;;;;;18.67;7.73;;;;;;;24.94;54.51;101463.53;5059941;28;20056;-54
2022/04/13 08:37:49;;;;;;;16.45;6.75;;;;;;;24.67;54.73;101459.19;5056969;28;20290;-55
2022/04/13 08:40:16;;;;;;;17.92;6.65;;;;;;;24.70;54.74;101470.41;5058005;28;20045;-55
2022/04/13 08:43:03;;;;;;;17.20;8.17;;;;;;;24.72;55.82;101472.84;5066642;28;20047;-56
2022/04/13 08:45:34;;;;;;;14.98;7.13;;;;;;;24.45;56.31;101474.81;5054346;28;20101;-52
2022/04/13 08:48:04;;;;;;;18.77;7.20;;;;;;;25.35;53.92;101464.19;5054843;28;20038;-57
2022/04/13 08:50:31;;;;;;;12.80;6.50;;;;;;;26.26;50.38;101469.72;5057587;28;20036;-55
2022/04/13 08:53:02;;;;;;;;;;;;;;;26.51;48.16;101473.34;5055267;28;20082;-54
2022/04/13 08:55:30;;;;;;;10.77;5.40;;;;;;;27.48;45.50;101473.41;5055121;28;19921;-54
2022/04/13 08:58:38;;;;;;;8.33;5.00;;;;;;;26.24;46.94;101480.97;5056343;28;20061;-55
2022/04/13 09:01:13;;;;;;;9.23;5.43;;;;;;;27.74;43.73;101490.34;5020550;28;20051;-55
2022/04/13 09:03:44;;;;;;;13.17;5.47;;;;;;;28.41;42.36;101496.78;5065277;28;20060;-56
2022/04/13 09:06:11;;;;;;;11.10;6.10;;;;;;;28.96;41.16;101500.75;5059426;28;20049;-52
2022/04/13 09:08:47;;;;;;;14.00;5.50;;;;;;;29.56;39.49;101501.78;5058274;28;20033;-55
2022/04/13 09:11:13;;;;;;;14.05;5.82;;;;;;;29.72;39.69;101509.69;5054926;28;20093;-54
2022/04/13 09:13:40;;;;;;;12.90;5.72;;;;;;;29.52;39.51;101500.75;5055953;28;20040;-55
2022/04/13 09:16:05;;;;;;;13.73;5.43;;;;;;;30.01;38.10;101501.03;5052665;28;20038;-55
2022/04/13 09:18:31;;;;;;;8.95;5.38;;;;;;;30.84;36.55;101500.91;5057920;28;20100;-53
2022/04/13 09:20:58;;;;;;;;;;;;;;;30.81;35.87;101502.38;5055554;28;20045;-50
2022/04/13 09:23:25;;;;;;;9.43;4.03;;;;;;;30.51;35.36;101507.53;5059156;28;19920;-52
2022/04/13 09:25:51;;;;;;;8.33;3.73;;;;;;;28.88;37.77;101515.25;5055333;28;20047;-56
2022/04/13 09:28:17;;;;;;;7.23;4.20;;;;;;;28.21;39.19;101508.13;5056350;28;20029;-57
2022/04/13 09:30:43;;;;;;;10.40;4.63;;;;;;;28.43;39.92;101510.22;5056860;28;20044;-55
2022/04/13 09:33:08;;;;;;;9.57;4.00;;;;;;;29.17;38.37;101522.38;5060612;28;20045;-53
2022/04/13 09:35:34;;;;;;;7.03;3.28;;;;;;;28.08;39.79;101521.47;5063376;28;20033;-55
2022/04/13 09:38:04;;;;;;;8.73;3.60;;;;;;;28.94;38.48;101525.03;5063216;28;20065;-55
2022/04/13 09:40:34;;;;;;;8.63;4.67;;;;;;;28.40;39.30;101525.41;5060815;28;20033;-53
2022/04/13 09:43:05;;;;;;;10.33;5.00;;;;;;;28.65;39.27;101539.84;5068239;28;20040;-56
2022/04/13 09:45:42;;;;;;;12.23;5.03;;;;;;;28.07;40.74;101541.81;5071566;28;20055;-50
2022/04/13 09:48:10;;;;;;;11.18;5.10;;;;;;;27.03;42.50;101537.63;5066259;28;20043;-54
2022/04/13 09:50:37;;;;;;;11.17;5.53;;;;;;;26.33;44.73;101530.53;5066925;28;20060;-54
2022/04/13 09:53:05;;;;;;;13.17;5.70;;;;;;;26.59;45.06;101541.28;5069442;28;20440;-54
2022/04/13 09:55:38;;;;;;;10.03;4.93;;;;;;;26.56;44.44;101545.41;5053070;28;20033;-56
2022/04/13 09:58:25;;;;;;;10.50;5.17;;;;;;;26.06;45.57;101542.72;5039667;28;20101;-54
2022/04/13 10:00:53;;;;;;;11.23;5.10;;;;;;;27.02;44.22;101544.22;5058304;28;20076;-54
2022/04/13 10:03:23;;;;;;;15.80;5.47;;;;;;;27.51;43.11;101548.88;5058001;28;20048;-52
2022/04/13 10:05:51;;;;;;;12.60;5.47;;;;;;;26.66;45.29;101555.50;5061633;28;20082;-50
2022/04/13 10:08:22;;;;;;;11.53;5.20;;;;;;;27.15;44.57;101550.09;5060738;28;20079;-53
2022/04/13 10:10:49;;;;;;;14.50;5.30;;;;;;;26.38;46.04;101560.66;5063031;28;20033;-51
2022/04/13 10:13:43;;;;;;;9.13;4.40;;;;;;;26.52;45.98;101558.06;5057726;28;20044;-51
2022/04/13 10:16:11;;;;;;;10.37;5.37;;;;;;;25.96;46.79;101553.75;5042094;28;20033;-51
2022/04/13 10:18:59;;;;;;;12.43;4.53;;;;;;;25.54;47.97;101567.66;5062404;28;20128;-51
2022/04/13 10:21:39;;;;;;;9.87;4.73;;;;;;;26.57;46.07;101557.22;5067234;28;20037;-55
2022/04/13 10:24:05;;;;;;;31.13;14.87;;;;;;;27.72;43.73;101563.22;5061790;28;20041;-56
2022/04/13 10:26:31;;;;;;;;;;;;;;;27.21;44.55;101559.91;5062523;28;20040;-53
2022/04/13 10:28:56;;;;;;;11.70;4.90;;;;;;;27.15;45.25;101572.06;5066605;28;19987;-52
2022/04/13 10:31:22;;;;;;;15.97;4.97;;;;;;;26.40;46.88;101558.44;5061439;28;20037;-53
2022/04/13 10:33:49;;;;;;;22.23;8.90;;;;;;;27.31;45.01;101569.97;5073664;28;20278;-54
2022/04/13 10:36:16;;;;;;;16.27;5.70;;;;;;;27.87;43.96;101581.41;5068064;28;20266;-53
2022/04/13 10:38:43;;;;;;;13.07;5.90;;;;;;;27.95;43.28;101582.69;5064261;28;20040;-54
2022/04/13 10:41:15;;;;;;;17.70;5.10;;;;;;;27.01;44.52;101583.75;5068478;28;20109;-55
2022/04/13 10:43:42;;;;;;;15.73;6.90;;;;;;;27.01;45.10;101583.75;5061568;28;20049;-56
2022/04/13 10:46:09;;;;;;;18.47;6.73;;;;;;;27.83;43.78;101589.44;5068850;28;20061;-56
2022/04/13 10:48:40;;;;;;;12.57;5.50;;;;;;;26.95;45.12;101589.56;5066316;28;20037;-54
2022/04/13 10:51:13;;;;;;;13.03;6.47;;;;;;;26.79;46.40;101584.19;5059263;28;20034;-51
2022/04/13 10:53:48;;;;;;;17.47;7.30;;;;;;;27.85;43.79;101592.69;5063720;28;20066;-55
2022/04/13 10:56:20;;;;;;;43.27;19.73;;;;;;;28.08;42.71;101590.19;5049959;28;20109;-55
2022/04/13 10:59:15;;;;;;;10.77;5.03;;;;;;;28.40;41.54;101593.34;5056970;28;20033;-54
2022/04/13 11:02:06;;;;;;;14.37;4.07;;;;;;;27.81;41.65;101605.41;5059386;28;20096;-56
2022/04/13 11:04:32;;;;;;;14.33;4.80;;;;;;;27.97;42.27;101608.75;5066695;28;20052;-55
2022/04/13 11:07:00;;;;;;;15.17;5.10;;;;;;;28.12;42.41;101602.22;5066333;28;20074;-51
2022/04/13 11:09:29;;;;;;;50.87;21.60;;;;;;;28.56;41.47;101607.66;5052240;28;20546;-52
2022/04/13 11:11:56;;;;;;;13.17;5.27;;;;;;;28.93;40.97;101599.63;5074279;28;20043;-54
2022/04/13 11:14:24;;;;;;;13.97;5.23;;;;;;;28.31;42.40;101596.75;5064554;28;20036;-54
2022/04/13 11:17:13;;;;;;;12.33;5.50;;;;;;;28.15;42.53;101604.44;5062047;28;20024;-55
2022/04/13 11:19:40;;;;;;;15.43;5.77;;;;;;;28.05;42.54;101607.28;5066180;28;20048;-53